createdAt,value
2022-10-04T00:00:44.861Z,2.53
2022-10-04T00:03:52.573Z,2.60
2022-10-04T00:07:00.373Z,2.60
2022-10-04T00:10:07.437Z,2.58
2022-10-04T00:13:19.102Z,3.05
2022-10-04T00:16:26.199Z,2.88
2022-10-04T00:19:42.131Z,2.50
2022-10-04T00:23:09.299Z,2.92
2022-10-04T00:26:18.436Z,2.67
2022-10-04T00:29:42.337Z,2.60
2022-10-04T00:33:03.531Z,3.03
2022-10-04T00:36:23.749Z,2.72
2022-10-04T00:39:30.409Z,2.78
2022-10-04T00:42:41.413Z,2.80
2022-10-04T00:45:49.211Z,3.25
2022-10-04T00:48:59.120Z,2.70
2022-10-04T00:52:05.194Z,2.92
2022-10-04T00:55:12.364Z,2.70
2022-10-04T00:58:21.762Z,3.15
2022-10-04T01:01:29.318Z,2.83
2022-10-04T01:04:42.843Z,2.88
2022-10-04T01:07:49.891Z,3.20
2022-10-04T01:10:56.305Z,2.97
2022-10-04T01:14:04.765Z,3.40
2022-10-04T01:17:11.168Z,3.38
2022-10-04T01:20:33.123Z,3.25
2022-10-04T01:23:50.914Z,3.38
2022-10-04T01:26:56.005Z,3.22
2022-10-04T01:30:01.235Z,3.65
2022-10-04T01:33:08.516Z,3.55
2022-10-04T01:36:13.754Z,3.22
2022-10-04T01:39:22.296Z,3.78
2022-10-04T01:42:31.272Z,3.47
2022-10-04T01:45:39.837Z,3.30
2022-10-04T01:48:46.935Z,3.58
2022-10-04T01:51:56.890Z,3.25
2022-10-04T01:55:06.239Z,3.30
2022-10-04T01:58:13.717Z,3.42
2022-10-04T02:01:26.953Z,3.67
2022-10-04T02:04:33.778Z,3.40
2022-10-04T02:07:39.566Z,3.92
2022-10-04T02:10:48.564Z,3.50
2022-10-04T02:13:54.718Z,3.58
2022-10-04T02:16:59.941Z,3.70
2022-10-04T02:20:05.641Z,4.25
2022-10-04T02:23:11.278Z,3.58
2022-10-04T02:26:18.845Z,3.65
2022-10-04T02:29:24.189Z,4.20
2022-10-04T02:32:41.981Z,4.28
2022-10-04T02:35:48.013Z,3.90
2022-10-04T02:38:56.901Z,3.88
2022-10-04T02:42:05.981Z,3.70
2022-10-04T02:45:16.432Z,3.75
2022-10-04T02:48:33.469Z,4.35
2022-10-04T02:51:43.987Z,4.85
2022-10-04T02:54:53.055Z,3.90
2022-10-04T02:58:01.491Z,4.50
2022-10-04T03:01:06.461Z,4.60
2022-10-04T03:04:13.597Z,4.25
2022-10-04T03:07:19.056Z,4.65
2022-10-04T03:10:25.162Z,4.15
2022-10-04T03:13:34.831Z,4.38
2022-10-04T03:16:41.232Z,4.32
2022-10-04T03:19:47.255Z,4.53
2022-10-04T03:22:55.696Z,4.15
2022-10-04T03:26:03.708Z,4.68
2022-10-04T03:29:12.275Z,5.00
2022-10-04T03:35:28.442Z,4.72
2022-10-04T03:38:35.628Z,4.78
2022-10-04T03:41:41.753Z,4.72
2022-10-04T03:44:51.244Z,4.20
2022-10-04T03:47:57.209Z,4.30
2022-10-04T03:51:02.393Z,4.07
2022-10-04T03:54:08.217Z,4.38
2022-10-04T03:57:14.201Z,4.63
2022-10-04T04:00:22.556Z,4.60
2022-10-04T04:03:28.968Z,4.68
2022-10-04T04:06:40.505Z,4.93
2022-10-04T04:09:47.154Z,5.30
2022-10-04T04:12:56.392Z,4.72
2022-10-04T04:16:06.064Z,5.18
2022-10-04T04:19:15.004Z,5.28
2022-10-04T04:22:21.331Z,4.85
2022-10-04T04:25:27.470Z,4.68
2022-10-04T04:28:34.416Z,4.30
2022-10-04T04:31:45.910Z,4.82
2022-10-04T04:34:53.595Z,3.78
2022-10-04T04:38:10.133Z,4.43
2022-10-04T04:41:15.090Z,4.35
2022-10-04T04:44:21.229Z,5.53
2022-10-04T04:47:34.060Z,4.43
2022-10-04T04:50:40.616Z,4.20
2022-10-04T04:53:47.920Z,4.57
2022-10-04T04:56:54.683Z,5.60
2022-10-04T05:00:01.362Z,3.70
2022-10-04T05:06:27.072Z,4.10
2022-10-04T05:09:33.073Z,4.38
2022-10-04T05:12:38.190Z,4.25
2022-10-04T05:15:44.301Z,3.95
2022-10-04T05:18:49.588Z,6.45
2022-10-04T05:21:58.562Z,3.92
2022-10-04T05:25:04.672Z,4.20
2022-10-04T05:28:13.174Z,4.50
2022-10-04T05:31:36.118Z,3.97
2022-10-04T05:34:42.503Z,4.20
2022-10-04T05:37:54.873Z,4.20
2022-10-04T05:41:02.870Z,4.05
2022-10-04T05:44:20.865Z,4.13
2022-10-04T05:47:28.326Z,4.28
2022-10-04T05:50:36.664Z,4.13
2022-10-04T05:53:45.290Z,4.38
2022-10-04T05:57:11.249Z,5.05
2022-10-04T06:00:19.217Z,4.53
2022-10-04T06:03:30.696Z,5.35
2022-10-04T06:06:41.677Z,4.55
2022-10-04T06:10:01.513Z,8.13
2022-10-04T06:13:16.617Z,4.68
2022-10-04T06:16:28.203Z,4.85
2022-10-04T06:19:51.413Z,4.22
2022-10-04T06:23:01.093Z,4.35
2022-10-04T06:26:08.453Z,4.57
2022-10-04T06:29:17.357Z,4.00
2022-10-04T06:32:34.525Z,3.90
2022-10-04T06:35:57.884Z,4.60
2022-10-04T06:39:21.490Z,5.28
2022-10-04T06:42:34.819Z,4.00
2022-10-04T06:45:47.981Z,4.30
2022-10-04T06:49:01.283Z,3.90
2022-10-04T06:52:21.126Z,3.80
2022-10-04T06:55:34.681Z,3.72
2022-10-04T06:58:57.674Z,3.67
2022-10-04T07:02:08.050Z,4.13
2022-10-04T07:05:19.228Z,3.78
2022-10-04T07:08:34.435Z,3.63
2022-10-04T07:11:44.152Z,3.70
2022-10-04T07:14:51.896Z,3.97
2022-10-04T07:18:01.650Z,4.97
2022-10-04T07:21:09.662Z,4.35
2022-10-04T07:24:16.309Z,4.15
2022-10-04T07:27:24.188Z,3.70
2022-10-04T07:30:36.439Z,4.65
2022-10-04T07:33:49.663Z,4.32
2022-10-04T07:36:56.439Z,4.20
2022-10-04T07:40:03.095Z,3.78
2022-10-04T07:43:11.283Z,4.40
2022-10-04T07:46:20.530Z,3.50
2022-10-04T07:49:28.297Z,4.50
2022-10-04T07:52:45.778Z,4.07
2022-10-04T07:55:55.291Z,4.30
2022-10-04T07:59:13.666Z,3.40
2022-10-04T08:02:25.566Z,3.65
2022-10-04T08:05:39.088Z,3.53
2022-10-04T08:08:54.317Z,3.40
2022-10-04T08:12:05.916Z,4.07
2022-10-04T08:15:21.342Z,3.65
2022-10-04T08:18:33.348Z,3.58
2022-10-04T08:21:45.354Z,3.33
2022-10-04T08:24:54.704Z,5.95
2022-10-04T08:28:23.222Z,3.33
2022-10-04T08:31:34.941Z,3.50
2022-10-04T08:34:48.540Z,3.35
2022-10-04T08:38:04.263Z,3.30
2022-10-04T08:41:20.556Z,2.97
2022-10-04T08:44:36.757Z,3.10
2022-10-04T08:47:56.476Z,3.33
2022-10-04T08:51:23.382Z,3.30
2022-10-04T08:54:48.237Z,2.97
2022-10-04T08:58:23.965Z,3.03
2022-10-04T09:01:42.657Z,3.13
2022-10-04T09:05:00.692Z,2.60
2022-10-04T09:08:15.843Z,2.67
2022-10-04T09:11:32.051Z,2.78
2022-10-04T09:14:46.077Z,2.40
2022-10-04T09:17:57.089Z,2.53
2022-10-04T09:21:08.029Z,2.80
2022-10-04T09:24:23.450Z,2.75
2022-10-04T09:27:56.988Z,3.03
2022-10-04T09:31:11.455Z,3.10
2022-10-04T09:34:31.623Z,2.97
2022-10-04T09:37:46.943Z,2.50
2022-10-04T09:41:08.485Z,3.05
2022-10-04T09:44:31.407Z,2.70
2022-10-04T09:47:45.966Z,2.85
2022-10-04T09:51:00.447Z,2.90
2022-10-04T09:54:15.205Z,3.83
2022-10-04T09:57:30.798Z,2.95
2022-10-04T10:00:39.865Z,2.90
2022-10-04T10:03:59.915Z,2.42
2022-10-04T10:07:15.614Z,2.72
2022-10-04T10:10:36.527Z,2.50
2022-10-04T10:13:58.708Z,2.65
2022-10-04T10:17:07.088Z,2.90
2022-10-04T10:20:19.799Z,2.97
2022-10-04T10:23:51.657Z,2.83
2022-10-04T10:27:08.203Z,2.20
2022-10-04T10:30:28.385Z,2.80
2022-10-04T10:33:42.916Z,2.70
2022-10-04T10:37:05.893Z,2.90
2022-10-04T10:40:30.747Z,1.95
2022-10-04T10:43:47.123Z,1.90
2022-10-04T10:47:08.664Z,1.15
2022-10-04T10:50:27.668Z,1.50
2022-10-04T10:53:48.439Z,0.70
2022-10-04T10:56:58.484Z,0.63
2022-10-04T11:00:22.233Z,0.50
2022-10-04T11:03:36.818Z,0.80
2022-10-04T11:07:03.121Z,0.85
2022-10-04T11:10:23.342Z,0.60
2022-10-04T11:13:43.394Z,0.50
2022-10-04T11:17:01.983Z,0.60
2022-10-04T11:20:25.608Z,0.50
2022-10-04T11:23:46.080Z,0.60
2022-10-04T11:27:08.555Z,0.57
2022-10-04T11:30:23.662Z,0.55
2022-10-04T11:33:56.150Z,0.50
2022-10-04T11:37:08.213Z,0.68
2022-10-04T11:40:34.117Z,1.17
2022-10-04T11:43:47.619Z,0.52
2022-10-04T11:46:56.665Z,0.70
2022-10-04T11:50:16.854Z,0.70
2022-10-04T11:53:38.827Z,0.70
2022-10-04T11:57:04.914Z,0.55
2022-10-04T12:00:16.483Z,0.82
2022-10-04T12:03:28.256Z,1.23
2022-10-04T12:06:49.738Z,0.88
2022-10-04T12:10:02.552Z,0.90
2022-10-04T12:13:21.972Z,0.75
2022-10-04T12:16:44.084Z,1.25
2022-10-04T12:19:57.349Z,0.80
2022-10-04T12:23:14.362Z,1.50
2022-10-04T12:26:35.157Z,0.93
2022-10-04T12:29:55.033Z,1.20
2022-10-04T12:33:09.256Z,3.00
2022-10-04T12:36:24.955Z,1.20
2022-10-04T12:39:34.516Z,1.50
2022-10-04T12:42:45.783Z,1.50
2022-10-04T12:46:01.898Z,1.08
2022-10-04T12:49:16.469Z,1.30
2022-10-04T12:52:24.136Z,1.20
2022-10-04T12:55:44.715Z,1.60
2022-10-04T12:58:56.231Z,1.02
2022-10-04T13:02:07.881Z,0.98
2022-10-04T13:05:19.888Z,0.75
2022-10-04T13:08:27.954Z,0.90
2022-10-04T13:11:44.765Z,1.10
2022-10-04T13:15:03.298Z,1.27
2022-10-04T13:18:15.017Z,1.00
2022-10-04T13:21:24.351Z,0.77
2022-10-04T13:24:31.316Z,0.80
2022-10-04T13:27:41.699Z,0.80
2022-10-04T13:30:50.155Z,1.20
2022-10-04T13:33:59.213Z,0.90
2022-10-04T13:37:12.548Z,1.10
2022-10-04T13:40:29.199Z,1.00
2022-10-04T13:43:52.113Z,1.45
2022-10-04T13:47:07.818Z,1.30
2022-10-04T13:50:26.942Z,1.00
2022-10-04T13:53:54.133Z,1.00
2022-10-04T13:57:01.537Z,0.95
2022-10-04T14:00:09.198Z,1.08
2022-10-04T14:03:26.703Z,1.37
2022-10-04T14:06:52.017Z,1.03
2022-10-04T14:10:14.415Z,1.20
2022-10-04T14:13:35.659Z,1.13
2022-10-04T14:16:47.280Z,0.80
2022-10-04T14:20:06.476Z,1.35
2022-10-04T14:23:26.390Z,1.10
2022-10-04T14:26:55.394Z,0.93
2022-10-04T14:30:09.730Z,1.20
2022-10-04T14:33:29.475Z,0.98
2022-10-04T14:36:45.799Z,1.00
2022-10-04T14:40:11.271Z,1.25
2022-10-04T14:43:26.588Z,1.20
2022-10-04T14:46:42.024Z,1.27
2022-10-04T14:50:00.253Z,1.40
2022-10-04T14:53:13.964Z,1.02
2022-10-04T14:56:37.412Z,1.10
2022-10-04T14:59:57.389Z,0.90
2022-10-04T15:03:22.184Z,1.00
2022-10-04T15:06:30.270Z,1.30
2022-10-04T15:09:56.051Z,1.45
2022-10-04T15:13:11.095Z,1.10
2022-10-04T15:16:22.289Z,1.00
2022-10-04T15:19:32.630Z,1.02
2022-10-04T15:22:43.595Z,0.82
2022-10-04T15:25:52.071Z,1.10
2022-10-04T15:32:06.771Z,1.08
2022-10-04T15:35:21.507Z,2.10
2022-10-04T15:38:33.029Z,1.52
2022-10-04T15:41:45.356Z,1.50
2022-10-04T15:45:01.040Z,1.17
2022-10-04T15:48:21.486Z,1.50
2022-10-04T15:51:41.919Z,1.52
2022-10-04T15:55:06.441Z,1.50
2022-10-04T15:58:26.612Z,1.45
2022-10-04T16:01:55.092Z,1.40
2022-10-04T16:05:17.760Z,1.30
2022-10-04T16:08:41.900Z,1.35
2022-10-04T16:12:07.331Z,1.55
2022-10-04T16:15:20.879Z,1.38
2022-10-04T16:18:37.094Z,1.42
2022-10-04T16:21:46.871Z,1.90
2022-10-04T16:24:55.401Z,1.60
2022-10-04T16:31:22.404Z,1.63
2022-10-04T16:34:32.475Z,1.50
2022-10-04T16:37:41.552Z,1.70
2022-10-04T16:41:00.245Z,1.50
2022-10-04T16:44:06.151Z,1.90
2022-10-04T16:47:22.653Z,1.95
2022-10-04T16:50:42.327Z,1.65
2022-10-04T16:53:52.294Z,3.20
2022-10-04T16:57:14.853Z,2.08
2022-10-04T17:00:35.556Z,2.17
2022-10-04T17:03:49.195Z,1.90
2022-10-04T17:06:56.620Z,3.20
2022-10-04T17:10:06.437Z,2.40
2022-10-04T17:13:23.572Z,2.60
2022-10-04T17:16:34.130Z,2.60
2022-10-04T17:19:49.205Z,2.33
2022-10-04T17:26:09.063Z,1.75
2022-10-04T17:29:25.285Z,1.60
2022-10-04T17:32:33.053Z,1.58
2022-10-04T17:35:59.185Z,1.75
2022-10-04T17:39:10.149Z,2.05
2022-10-04T17:42:23.694Z,1.20
2022-10-04T17:45:45.537Z,1.50
2022-10-04T17:49:08.429Z,1.45
2022-10-04T17:52:43.426Z,1.33
2022-10-04T17:55:49.881Z,1.58
2022-10-04T17:58:57.069Z,1.58
2022-10-04T18:02:04.937Z,1.38
2022-10-04T18:05:18.417Z,1.52
2022-10-04T18:08:31.358Z,1.65
2022-10-04T18:11:44.586Z,1.60
2022-10-04T18:14:54.936Z,1.70
2022-10-04T18:18:10.678Z,1.85
2022-10-04T18:21:36.455Z,1.90
2022-10-04T18:24:45.075Z,1.88
2022-10-04T18:30:59.426Z,1.70
2022-10-04T18:34:21.742Z,1.40
2022-10-04T18:37:32.861Z,1.67
2022-10-04T18:40:44.327Z,1.33
2022-10-04T18:43:53.685Z,1.38
2022-10-04T18:47:00.284Z,1.20
2022-10-04T18:50:17.145Z,1.13
2022-10-04T18:53:29.907Z,1.40
2022-10-04T18:56:41.160Z,1.08
2022-10-04T19:00:02.544Z,0.90
2022-10-04T19:03:13.923Z,1.10
2022-10-04T19:06:20.821Z,1.33
2022-10-04T19:09:29.590Z,1.60
2022-10-04T19:12:43.347Z,1.00
2022-10-04T19:15:54.050Z,1.30
2022-10-04T19:19:01.067Z,0.98
2022-10-04T19:22:11.577Z,1.30
2022-10-04T19:25:25.259Z,1.50
2022-10-04T19:28:35.744Z,1.70
2022-10-04T19:31:47.703Z,1.50
2022-10-04T19:34:57.197Z,1.83
2022-10-04T19:38:05.527Z,1.88
2022-10-04T19:41:14.783Z,1.60
2022-10-04T19:44:29.453Z,1.50
2022-10-04T19:47:42.681Z,1.40
2022-10-04T19:50:51.153Z,1.50
2022-10-04T19:53:59.267Z,1.40
2022-10-04T19:57:06.450Z,1.70
2022-10-04T20:00:17.675Z,2.08
2022-10-04T20:03:22.774Z,1.40
2022-10-04T20:06:28.238Z,1.50
2022-10-04T20:12:42.321Z,1.38
2022-10-04T20:15:51.702Z,1.23
2022-10-04T20:19:03.423Z,1.20
2022-10-04T20:22:23.843Z,1.30
2022-10-04T20:25:50.261Z,1.23
2022-10-04T20:28:55.829Z,1.38
2022-10-04T20:32:03.566Z,1.50
2022-10-04T20:35:09.503Z,1.45
2022-10-04T20:38:32.159Z,1.58
2022-10-04T20:41:59.184Z,1.67
2022-10-04T20:45:06.105Z,1.77
2022-10-04T20:48:20.502Z,1.65
2022-10-04T20:51:25.791Z,1.55
2022-10-04T20:54:30.837Z,1.70
2022-10-04T20:57:40.302Z,1.52
2022-10-04T21:00:54.144Z,1.48
2022-10-04T21:04:14.739Z,1.45
2022-10-04T21:07:20.809Z,1.50
2022-10-04T21:10:28.779Z,1.77
2022-10-04T21:13:50.206Z,1.40
2022-10-04T21:17:01.409Z,1.50
2022-10-04T21:20:16.353Z,1.27
2022-10-04T21:23:29.789Z,1.55
2022-10-04T21:26:35.560Z,1.70
2022-10-04T21:29:40.895Z,2.10
2022-10-04T21:32:45.979Z,1.33
2022-10-04T21:35:55.407Z,1.27
2022-10-04T21:39:00.445Z,1.35
2022-10-04T21:42:05.404Z,1.33
2022-10-04T21:45:11.211Z,1.52
2022-10-04T21:48:16.386Z,1.40
2022-10-04T21:51:24.334Z,1.40
2022-10-04T21:54:29.537Z,1.70
2022-10-04T21:57:35.823Z,1.75
2022-10-04T22:00:41.052Z,1.45
2022-10-04T22:03:46.127Z,1.60
2022-10-04T22:06:53.955Z,1.20
2022-10-04T22:09:58.999Z,1.30
2022-10-04T22:13:04.213Z,1.58
2022-10-04T22:16:09.942Z,1.42
2022-10-04T22:19:15.034Z,1.33
2022-10-04T22:22:22.878Z,1.58
2022-10-04T22:25:29.095Z,1.50
2022-10-04T22:28:34.141Z,1.63
2022-10-04T22:31:43.836Z,1.73
2022-10-04T22:34:49.302Z,1.40
2022-10-04T22:37:57.046Z,1.50
2022-10-04T22:41:03.206Z,1.50
2022-10-04T22:44:10.902Z,1.40
2022-10-04T22:47:17.116Z,1.23
2022-10-04T22:50:31.160Z,1.35
2022-10-04T22:53:39.068Z,1.33
2022-10-04T22:56:44.474Z,1.40
2022-10-04T22:59:50.585Z,1.33
2022-10-04T23:02:55.599Z,1.65
2022-10-04T23:06:01.170Z,1.40
2022-10-04T23:09:08.820Z,1.40
2022-10-04T23:12:13.974Z,1.50
2022-10-04T23:15:20.034Z,1.67
2022-10-04T23:18:25.119Z,1.33
2022-10-04T23:21:34.095Z,1.63
2022-10-04T23:24:41.951Z,1.58
2022-10-04T23:27:47.966Z,1.70
2022-10-04T23:31:04.449Z,2.10
2022-10-04T23:34:14.300Z,1.85
2022-10-04T23:37:20.992Z,2.13
2022-10-04T23:40:28.909Z,1.90
2022-10-04T23:43:34.184Z,2.42
2022-10-04T23:46:39.406Z,1.83
2022-10-04T23:49:44.949Z,2.13
2022-10-04T23:52:50.004Z,1.77
2022-10-04T23:55:57.828Z,2.25
2022-10-04T23:59:02.896Z,2.13
